Nearby METAR Reports

 

KLOT - Romeoville/Chi, Illinois, USA
Distance from station: N 3mi, 5km
Updated: Mon, 23-Oct-2017 2:55am CDT
Rain, Overcast
Rain, Overcast
 Wind from NNE
Wind: NNE 7 mph , 11 km/h
Temperature: 50°F , 10°C
Wind Chill: 47°F , 8°C
Dew Point: 50°F , 10°C
Humidity: 100%
Barometer: 29.95 inHg , 1014.2 hPa
Summary: Rain
Clouds: Overcast
Visibility: 5 miles , 8 km
Cloud details: Overcast 500 ft
2017/10/23 07:55 KLOT 230755Z AUTO 02006KT 5SM RA OVC005 10/10 A2995 RMK AO2 P0004 T01030100
KJOT - Joliet, Illinois, USA
Distance from station: WSW 5mi, 7km
Updated: Mon, 23-Oct-2017 2:55am CDT
Light rain, Overcast
Light rain, Overcast
 Wind from N
Wind: N 8 mph , 13 km/h
Temperature: 52°F , 11°C
Dew Point: 52°F , 11°C
Humidity: 100%
Barometer: 29.95 inHg , 1014.2 hPa
Summary: Light rain
Clouds: Overcast
Visibility: 5 miles , 8 km
Cloud details: Overcast 500 ft
2017/10/23 07:55 KJOT 230755Z AUTO 36007KT 5SM -RA OVC005 11/11 A2995 RMK AO2 P0003 T01130111
 
KC09 - Morris-Washburn, Illinois, USA
Distance from station: WSW 18mi, 29km
Updated: Mon, 23-Oct-2017 2:55am CDT
Rain, Overcast
Rain, Overcast
 Wind from NNW
Wind: NNW 5 mph , 7 km/h
Temperature: 52°F , 11°C
Dew Point: 50°F , 10°C
Humidity: 94%
Barometer: 29.95 inHg , 1014.2 hPa
Summary: Rain
Clouds: Overcast
Visibility: 7 miles , 11 km
Cloud details: Overcast 600 ft
2017/10/23 07:55 KC09 230755Z AUTO 34004KT 7SM RA OVC006 11/10 A2995 RMK AO2 P0004 T01060100
KARR - Chicago/Aurora, Illinois, USA
Distance from station: NW 24mi, 39km
Updated: Mon, 23-Oct-2017 2:52am CDT
Light rain, Mist, Overcast
Light rain, Mist, Overcast
 Wind from NNW
Wind: NNW 7 mph , 11 km/h
Temperature: 52°F , 11°C
Dew Point: 50°F , 10°C
Humidity: 94%
Barometer: 29.96 inHg , 1014.6 hPa
Summary: Light rain, Mist
Clouds: Overcast
Visibility: 5 miles , 8 km
Cloud details: Partly cloudy 700 ft
Mostly cloudy 2800 ft
Overcast 5000 ft
2017/10/23 07:52 KARR 230752Z AUTO 34006KT 5SM -RA BR SCT007 BKN028 OVC050 11/10 A2996 RMK AO2 SLP147 P0002 T01060100
 
KMDW - Chicago, Illinois, USA
Distance from station: NE 25mi, 39km
Updated: Mon, 23-Oct-2017 2:53am CDT
Light rain, Overcast
Light rain, Overcast
 Wind from N
Wind: N 8 mph , 13 km/h
Temperature: 52°F , 11°C
Dew Point: 52°F , 11°C
Humidity: 100%
Barometer: 29.95 inHg , 1014.2 hPa
Summary: Light rain
Clouds: Overcast
Visibility: 7 miles , 11 km
Cloud details: Mostly cloudy 800 ft
Mostly cloudy 1200 ft
Overcast 2200 ft
2017/10/23 07:53 KMDW 230753Z 36007KT 7SM -RA BKN008 BKN012 OVC022 11/11 A2995 RMK AO2 SLP139 P0004 T01110106 $
KDPA - Chicago/Dupage, Illinois, USA
Distance from station: NNW 26mi, 42km
Updated: Mon, 23-Oct-2017 2:52am CDT
Light rain, Mist, Overcast
Light rain, Mist, Overcast
 Wind from N
Wind: N 9 mph , 15 km/h
Temperature: 52°F , 11°C
Dew Point: 52°F , 11°C
Humidity: 100%
Barometer: 29.95 inHg , 1014.2 hPa
Summary: Light rain, Mist
Clouds: Overcast
Visibility: 4 miles , 6 km
Cloud details: Partly cloudy 600 ft
Overcast 2100 ft
2017/10/23 07:52 KDPA 230752Z 35008KT 4SM -RA BR SCT006 OVC021 11/11 A2995 RMK AO2 SLP142 P0001 T01060106
 
KIGQ - Chicago/Lansing, Illinois, USA
Distance from station: E 30mi, 48km
Updated: Mon, 23-Oct-2017 2:55am CDT
Rain, Overcast
Rain, Overcast
 Wind from N
Wind: N 10 mph , 17 km/h
Temperature: 54°F , 12°C
Dew Point: 54°F , 12°C
Humidity: 100%
Barometer: 29.94 inHg , 1013.9 hPa
Summary: Rain
Clouds: Overcast
Visibility: 7 miles , 11 km
Cloud details: Overcast 400 ft
2017/10/23 07:55 KIGQ 230755Z AUTO 36009KT 7SM RA OVC004 12/12 A2994 RMK AO2 P0005 T01170117
KORD - Chicago O'hare, Illinois, USA
Distance from station: NNE 31mi, 50km
Updated: Mon, 23-Oct-2017 2:51am CDT
Light rain, Mist, Overcast
Light rain, Mist, Overcast
 Wind from NNW
Wind: NNW 9 mph , 15 km/h
Temperature: 52°F , 11°C
Dew Point: 48°F , 9°C
Humidity: 88%
Barometer: 29.95 inHg , 1014.2 hPa
Summary: Light rain, Mist
Clouds: Overcast
Visibility: 5 miles , 8 km
Cloud details: Mostly cloudy 700 ft
Overcast 1800 ft
2017/10/23 07:51 KORD 230751Z 34008KT 5SM -RA BR BKN007 OVC018 11/09 A2995 RMK AO2 SLP142 P0002 T01110094 $
 
KGYY - Gary Regional, Indiana, USA
Distance from station: E 36mi, 58km
Updated: Mon, 23-Oct-2017 2:55am CDT
Rain, Overcast
Rain, Overcast
 Wind from N
Wind: N 12 mph , 19 km/h
Temperature: 55°F , 13°C
Dew Point: 55°F , 13°C
Humidity: 100%
Barometer: 29.94 inHg , 1013.9 hPa
Summary: Rain
Clouds: Overcast
Visibility: 7 miles , 11 km
Cloud details: Overcast 600 ft
2017/10/23 07:55 KGYY 230755Z AUTO 36010KT 7SM RA OVC006 13/13 A2994 RMK AO2 P0010 T01320126
KIKK - Kankakee, Illinois, USA
Distance from station: SSE 36mi, 58km
Updated: Mon, 23-Oct-2017 2:55am CDT
Rain, Overcast
Rain, Overcast
 Wind from N
Wind: N 9 mph , 15 km/h
Temperature: 54°F , 12°C
Dew Point: 52°F , 11°C
Humidity: 94%
Barometer: 29.92 inHg , 1013.2 hPa
Summary: Rain
Clouds: Overcast
Visibility: 5 miles , 8 km
Cloud details: Overcast 400 ft
2017/10/23 07:55 KIKK 230755Z AUTO 36008KT 5SM RA OVC004 12/11 A2992 RMK AO2 P0008 T01170113
 
KDKB - De Kalb, Illinois, USA
Distance from station: NW 40mi, 65km
Updated: Mon, 23-Oct-2017 2:55am CDT
Light drizzle, Overcast
Light drizzle, Overcast
 Wind from N
Wind: N 5 mph , 7 km/h
Temperature: 50°F , 10°C
Wind Chill: 48°F , 9°C
Dew Point: 48°F , 9°C
Humidity: 94%
Barometer: 29.97 inHg , 1014.9 hPa
Summary: Light Drizzle
Clouds: Overcast
Visibility: 7 miles , 11 km
Cloud details: Overcast 7500 ft
2017/10/23 07:55 KDKB 230755Z AUTO 36004KT 7SM -DZ OVC075 10/09 A2997 RMK AO2 T00950091
KPWK - Palwaukee, Illinois, USA
Distance from station: NNE 41mi, 65km
Updated: Mon, 23-Oct-2017 2:52am CDT
Light rain, Overcast
Light rain, Overcast
 Wind from NNW
Wind: NNW 6 mph , 9 km/h
Temperature: 52°F , 11°C
Dew Point: 52°F , 11°C
Humidity: 100%
Barometer: 29.96 inHg , 1014.6 hPa
Summary: Light rain
Clouds: Overcast
Visibility: 8 miles , 13 km
Cloud details: Mostly cloudy 600 ft
Overcast 2000 ft
2017/10/23 07:52 KPWK 230752Z AUTO 33005KT 8SM -RA BKN006 OVC020 11/11 A2996 RMK AO2 RAB06 SLP148 P0002 T01110106